createdAt,value
2023-05-14T00:00:31.494Z,18.00
2023-05-14T00:02:57.985Z,13.18
2023-05-14T00:05:24.429Z,21.00
2023-05-14T00:07:50.760Z,19.48
2023-05-14T00:10:19.026Z,14.75
2023-05-14T00:12:45.473Z,19.08
2023-05-14T00:15:11.765Z,15.30
2023-05-14T00:17:38.187Z,16.30
2023-05-14T00:20:07.065Z,19.13
2023-05-14T00:22:34.116Z,14.43
2023-05-14T00:25:00.656Z,17.40
2023-05-14T00:27:26.908Z,17.52
2023-05-14T00:29:53.211Z,14.32
2023-05-14T00:32:19.651Z,17.50
2023-05-14T00:34:45.927Z,15.70
2023-05-14T00:37:12.176Z,14.63
2023-05-14T00:39:38.479Z,15.45
2023-05-14T00:42:04.925Z,15.05
2023-05-14T00:44:31.178Z,13.70
2023-05-14T00:46:58.259Z,13.98
2023-05-14T00:49:25.229Z,14.55
2023-05-14T00:51:52.340Z,20.27
2023-05-14T00:54:19.481Z,17.60
2023-05-14T00:56:46.945Z,14.75
2023-05-14T00:59:13.784Z,14.93
2023-05-14T01:01:40.116Z,17.05
2023-05-14T01:04:07.194Z,15.23
2023-05-14T01:06:39.760Z,15.43
2023-05-14T01:09:10.006Z,15.38
2023-05-14T01:11:47.492Z,19.40
2023-05-14T01:14:28.895Z,17.13
2023-05-14T01:16:58.042Z,16.30
2023-05-14T01:19:33.735Z,22.35
2023-05-14T01:24:26.355Z,15.75
2023-05-14T01:26:53.205Z,16.45
2023-05-14T01:29:23.292Z,17.40
2023-05-14T01:31:50.809Z,16.30
2023-05-14T01:34:19.825Z,18.33
2023-05-14T01:36:47.335Z,16.75
2023-05-14T01:39:14.279Z,18.77
2023-05-14T01:41:42.202Z,17.65
2023-05-14T01:44:11.809Z,16.00
2023-05-14T01:46:38.366Z,14.85
2023-05-14T01:49:04.771Z,15.70
2023-05-14T01:51:31.076Z,15.30
2023-05-14T01:53:57.437Z,17.98
2023-05-14T01:56:23.936Z,18.58
2023-05-14T01:58:50.245Z,13.38
2023-05-14T02:01:16.590Z,14.90
2023-05-14T02:03:42.852Z,22.33
2023-05-14T02:06:09.146Z,17.58
2023-05-14T02:08:35.430Z,17.60
2023-05-14T02:11:01.864Z,18.55
2023-05-14T02:13:28.111Z,14.85
2023-05-14T02:15:54.457Z,14.75
2023-05-14T02:18:20.756Z,17.23
2023-05-14T02:20:47.069Z,14.88
2023-05-14T02:23:13.444Z,15.60
2023-05-14T02:25:39.837Z,20.08
2023-05-14T02:28:06.090Z,17.83
2023-05-14T02:30:32.405Z,17.15
2023-05-14T02:32:59.055Z,19.60
2023-05-14T02:35:25.433Z,16.85
2023-05-14T02:37:51.747Z,16.80
2023-05-14T02:40:18.005Z,18.25
2023-05-14T02:42:44.885Z,18.95
2023-05-14T02:45:11.265Z,17.40
2023-05-14T02:47:38.335Z,15.50
2023-05-14T02:50:06.313Z,17.33
2023-05-14T02:52:32.809Z,18.63
2023-05-14T02:54:59.146Z,16.35
2023-05-14T02:57:25.536Z,14.40
2023-05-14T02:59:52.019Z,15.98
2023-05-14T03:02:18.799Z,21.42
2023-05-14T03:04:45.474Z,15.05
2023-05-14T03:07:11.851Z,20.75
2023-05-14T03:09:38.502Z,18.98
2023-05-14T03:12:05.069Z,18.85
2023-05-14T03:14:31.417Z,21.38
2023-05-14T03:16:57.795Z,18.42
2023-05-14T03:19:24.146Z,16.50
2023-05-14T03:21:50.544Z,18.13
2023-05-14T03:24:17.021Z,15.23
2023-05-14T03:26:43.492Z,15.98
2023-05-14T03:29:10.724Z,15.43
2023-05-14T03:31:37.182Z,18.08
2023-05-14T03:34:03.495Z,15.50
2023-05-14T03:36:29.814Z,22.63
2023-05-14T03:38:56.134Z,18.65
2023-05-14T03:41:22.990Z,19.77
2023-05-14T03:43:49.276Z,21.80
2023-05-14T03:46:15.768Z,17.05
2023-05-14T03:48:42.613Z,16.50
2023-05-14T03:51:09.011Z,20.58
2023-05-14T03:53:35.289Z,16.15
2023-05-14T03:56:01.586Z,20.75
2023-05-14T03:58:27.952Z,15.68
2023-05-14T04:00:54.255Z,16.65
2023-05-14T04:03:20.670Z,15.77
2023-05-14T04:05:47.008Z,15.88
2023-05-14T04:08:13.345Z,18.05
2023-05-14T04:10:39.760Z,17.63
2023-05-14T04:13:06.277Z,17.58
2023-05-14T04:15:32.633Z,18.35
2023-05-14T04:17:59.087Z,17.33
2023-05-14T04:20:25.848Z,21.48
2023-05-14T04:22:52.660Z,16.77
2023-05-14T04:25:19.106Z,17.58
2023-05-14T04:27:45.729Z,14.70
2023-05-14T04:30:12.502Z,18.80
2023-05-14T04:32:39.299Z,14.32
2023-05-14T04:35:05.933Z,18.20
2023-05-14T04:37:33.102Z,20.40
2023-05-14T04:39:59.460Z,20.27
2023-05-14T04:42:25.739Z,20.90
2023-05-14T04:44:52.308Z,18.13
2023-05-14T04:47:18.754Z,17.23
2023-05-14T04:49:45.169Z,16.70
2023-05-14T04:52:11.513Z,12.93
2023-05-14T04:54:37.813Z,14.15
2023-05-14T04:57:04.264Z,13.27
2023-05-14T04:59:30.936Z,13.00
2023-05-14T05:01:57.703Z,13.80
2023-05-14T05:04:24.140Z,14.80
2023-05-14T05:06:50.657Z,14.25
2023-05-14T05:09:17.744Z,14.05
2023-05-14T05:11:44.089Z,13.50
2023-05-14T05:14:10.514Z,17.92
2023-05-14T05:16:36.897Z,17.95
2023-05-14T05:19:03.345Z,16.27
2023-05-14T05:21:29.769Z,16.35
2023-05-14T05:23:56.056Z,13.43
2023-05-14T05:26:22.394Z,14.73
2023-05-14T05:28:48.772Z,15.52
2023-05-14T05:31:17.068Z,19.70
2023-05-14T05:33:44.764Z,17.63
2023-05-14T05:36:11.075Z,14.82
2023-05-14T05:38:37.610Z,13.43
2023-05-14T05:41:03.834Z,15.45
2023-05-14T05:43:30.188Z,15.77
2023-05-14T05:45:56.432Z,15.27
2023-05-14T05:48:22.748Z,17.58
2023-05-14T05:50:49.215Z,18.15
2023-05-14T05:53:18.530Z,18.20
2023-05-14T05:55:44.860Z,14.45
2023-05-14T05:58:11.112Z,16.48
2023-05-14T06:00:37.422Z,16.10
2023-05-14T06:03:03.705Z,17.02
2023-05-14T06:05:30.090Z,13.80
2023-05-14T06:07:56.571Z,16.30
2023-05-14T06:10:23.028Z,11.32
2023-05-14T06:12:49.431Z,12.25
2023-05-14T06:15:15.729Z,16.80
2023-05-14T06:17:42.152Z,12.95
2023-05-14T06:20:09.054Z,15.90
2023-05-14T06:22:35.412Z,16.67
2023-05-14T06:25:01.870Z,13.75
2023-05-14T06:27:28.171Z,13.45
2023-05-14T06:29:54.431Z,12.68
2023-05-14T06:32:20.802Z,12.02
2023-05-14T06:34:47.305Z,13.80
2023-05-14T06:37:13.616Z,13.95
2023-05-14T06:39:40.307Z,13.25
2023-05-14T06:42:07.381Z,12.32
2023-05-14T06:44:33.657Z,13.10
2023-05-14T06:46:59.976Z,11.18
2023-05-14T06:49:26.345Z,11.23
2023-05-14T06:51:52.625Z,14.45
2023-05-14T06:54:20.448Z,15.95
2023-05-14T06:56:46.844Z,16.40
2023-05-14T06:59:13.146Z,15.93
2023-05-14T07:01:39.521Z,14.95
2023-05-14T07:04:05.896Z,16.33
2023-05-14T07:06:32.628Z,13.77
2023-05-14T07:08:59.384Z,12.35
2023-05-14T07:11:26.033Z,14.30
2023-05-14T07:13:52.344Z,18.63
2023-05-14T07:16:18.654Z,14.00
2023-05-14T07:18:45.576Z,18.20
2023-05-14T07:21:12.240Z,20.20
2023-05-14T07:23:38.598Z,18.98
2023-05-14T07:26:05.725Z,19.13
2023-05-14T07:28:32.113Z,12.10
2023-05-14T07:30:58.578Z,16.33
2023-05-14T07:33:25.461Z,13.02
2023-05-14T07:35:52.154Z,17.33
2023-05-14T07:38:19.017Z,14.25
2023-05-14T07:40:45.316Z,15.68
2023-05-14T07:43:11.698Z,16.25
2023-05-14T07:45:39.252Z,13.98
2023-05-14T07:48:06.055Z,14.23
2023-05-14T07:50:32.673Z,17.33
2023-05-14T07:52:59.005Z,15.77
2023-05-14T07:55:25.856Z,13.43
2023-05-14T07:57:52.147Z,12.63
2023-05-14T08:00:18.533Z,13.70
2023-05-14T08:02:45.000Z,19.52
2023-05-14T08:05:11.528Z,12.70
2023-05-14T08:07:37.854Z,19.85
2023-05-14T08:10:04.313Z,15.23
2023-05-14T08:12:30.690Z,15.23
2023-05-14T08:14:56.996Z,14.10
2023-05-14T08:17:23.343Z,17.58
2023-05-14T08:19:49.589Z,14.52
2023-05-14T08:22:15.839Z,19.45
2023-05-14T08:24:43.092Z,15.40
2023-05-14T08:27:09.852Z,16.75
2023-05-14T08:29:36.228Z,13.10
2023-05-14T08:32:11.671Z,14.55
2023-05-14T08:34:46.320Z,16.23
2023-05-14T08:37:12.764Z,11.80
2023-05-14T08:39:39.487Z,16.83
2023-05-14T08:42:06.722Z,12.07
2023-05-14T08:44:36.235Z,12.82
2023-05-14T08:47:02.773Z,18.90
2023-05-14T08:49:40.680Z,11.40
2023-05-14T08:52:07.825Z,14.15
2023-05-14T08:54:34.625Z,13.60
2023-05-14T08:57:00.995Z,9.77
2023-05-14T08:59:27.239Z,10.13
2023-05-14T09:01:54.281Z,12.57
2023-05-14T09:04:22.093Z,15.18
2023-05-14T09:06:52.288Z,13.18
2023-05-14T09:09:18.608Z,10.90
2023-05-14T09:11:48.762Z,12.98
2023-05-14T09:14:15.119Z,15.35
2023-05-14T09:16:45.327Z,20.08
2023-05-14T09:19:12.529Z,16.30
2023-05-14T09:21:39.275Z,14.38
2023-05-14T09:24:05.805Z,14.27
2023-05-14T09:26:32.813Z,15.25
2023-05-14T09:29:02.773Z,17.35
2023-05-14T09:31:29.543Z,12.70
2023-05-14T09:33:56.130Z,15.90
2023-05-14T09:36:23.267Z,11.57
2023-05-14T09:38:49.559Z,12.10
2023-05-14T09:41:16.318Z,12.77
2023-05-14T09:43:42.789Z,10.57
2023-05-14T09:46:09.128Z,13.20
2023-05-14T09:48:35.654Z,13.32
2023-05-14T09:51:02.810Z,10.75
2023-05-14T09:53:32.447Z,7.45
2023-05-14T09:55:58.892Z,8.52
2023-05-14T09:58:25.222Z,14.57
2023-05-14T10:00:51.736Z,10.65
2023-05-14T10:03:20.095Z,8.10
2023-05-14T10:05:48.853Z,11.15
2023-05-14T10:08:20.341Z,11.25
2023-05-14T10:10:46.651Z,12.48
2023-05-14T10:13:20.272Z,10.55
2023-05-14T10:15:56.494Z,8.13
2023-05-14T10:18:23.350Z,11.20
2023-05-14T10:21:03.815Z,13.20
2023-05-14T10:23:30.628Z,9.57
2023-05-14T10:26:00.347Z,8.88
2023-05-14T10:28:27.182Z,14.23
2023-05-14T10:30:54.046Z,11.75
2023-05-14T10:33:21.011Z,8.52
2023-05-14T10:35:52.330Z,12.57
2023-05-14T10:38:21.914Z,7.72
2023-05-14T10:40:48.391Z,11.30
2023-05-14T10:43:15.968Z,9.68
2023-05-14T10:45:43.808Z,11.65
2023-05-14T10:48:10.333Z,9.85
2023-05-14T10:50:36.676Z,9.52
2023-05-14T10:53:03.016Z,11.20
2023-05-14T10:55:29.636Z,8.82
2023-05-14T10:57:58.814Z,10.20
2023-05-14T11:00:25.999Z,11.18
2023-05-14T11:02:55.935Z,9.60
2023-05-14T11:05:22.344Z,10.43
2023-05-14T11:07:49.170Z,9.68
2023-05-14T11:10:16.568Z,13.48
2023-05-14T11:12:46.602Z,9.20
2023-05-14T11:15:17.312Z,7.85
2023-05-14T11:17:44.371Z,9.15
2023-05-14T11:20:11.131Z,8.40
2023-05-14T11:22:38.446Z,11.05
2023-05-14T11:25:05.402Z,8.35
2023-05-14T11:27:33.545Z,17.10
2023-05-14T11:30:00.976Z,8.25
2023-05-14T11:32:27.570Z,10.00
2023-05-14T11:34:53.913Z,8.65
2023-05-14T11:37:20.285Z,8.95
2023-05-14T11:39:47.373Z,14.70
2023-05-14T11:42:14.687Z,7.53
2023-05-14T11:44:41.593Z,11.02
2023-05-14T11:47:07.903Z,10.27
2023-05-14T11:49:36.058Z,8.13
2023-05-14T11:52:03.055Z,12.20
2023-05-14T11:54:29.884Z,9.30
2023-05-14T11:56:56.708Z,11.70
2023-05-14T11:59:31.404Z,10.38
2023-05-14T12:01:58.121Z,9.85
2023-05-14T12:04:24.599Z,10.70
2023-05-14T12:06:53.828Z,10.90
2023-05-14T12:09:20.692Z,11.93
2023-05-14T12:11:47.618Z,9.70
2023-05-14T12:14:18.003Z,9.02
2023-05-14T12:16:44.830Z,7.38
2023-05-14T12:19:11.689Z,8.23
2023-05-14T12:21:38.135Z,10.63
2023-05-14T12:24:04.535Z,11.90
2023-05-14T12:26:34.026Z,11.35
2023-05-14T12:29:01.296Z,14.85
2023-05-14T12:31:28.345Z,12.77
2023-05-14T12:33:54.758Z,13.15
2023-05-14T12:36:22.230Z,10.43
2023-05-14T12:38:58.295Z,8.20
2023-05-14T12:41:24.588Z,8.82
2023-05-14T12:43:50.859Z,10.88
2023-05-14T12:46:17.288Z,12.82
2023-05-14T12:48:43.615Z,8.70
2023-05-14T12:51:09.909Z,11.73
2023-05-14T12:53:36.151Z,11.75
2023-05-14T12:56:02.548Z,10.32
2023-05-14T12:58:28.906Z,7.90
2023-05-14T13:00:55.376Z,10.05
2023-05-14T13:03:21.793Z,12.73
2023-05-14T13:05:48.112Z,12.05
2023-05-14T13:08:17.953Z,8.60
2023-05-14T13:10:44.808Z,12.32
2023-05-14T13:13:11.573Z,11.82
2023-05-14T13:15:38.110Z,11.65
2023-05-14T13:18:04.793Z,10.13
2023-05-14T13:20:31.146Z,10.57
2023-05-14T13:22:57.585Z,11.10
2023-05-14T13:25:24.208Z,10.13
2023-05-14T13:27:53.516Z,10.25
2023-05-14T13:30:19.967Z,8.18
2023-05-14T13:32:46.637Z,12.55
2023-05-14T13:35:13.263Z,11.43
2023-05-14T13:37:39.791Z,9.30
2023-05-14T13:40:09.622Z,12.95
2023-05-14T13:42:36.584Z,8.82
2023-05-14T13:45:03.485Z,7.22
2023-05-14T13:47:29.843Z,9.70
2023-05-14T13:49:56.528Z,10.77
2023-05-14T13:52:22.891Z,10.35
2023-05-14T13:54:49.277Z,14.07
2023-05-14T13:57:15.640Z,6.13
2023-05-14T13:59:41.916Z,10.57
2023-05-14T14:02:08.400Z,8.60
2023-05-14T14:04:34.846Z,10.35
2023-05-14T14:07:01.161Z,10.00
2023-05-14T14:09:27.635Z,8.15
2023-05-14T14:11:53.956Z,11.95
2023-05-14T14:14:20.295Z,9.18
2023-05-14T14:16:46.579Z,14.43
2023-05-14T14:19:13.098Z,8.32
2023-05-14T14:21:42.655Z,11.27
2023-05-14T14:24:08.895Z,9.88
2023-05-14T14:26:35.293Z,8.80
2023-05-14T14:29:01.609Z,13.55
2023-05-14T14:31:28.124Z,6.70
2023-05-14T14:33:54.510Z,8.02
2023-05-14T14:36:20.969Z,13.27
2023-05-14T14:38:47.250Z,8.55
2023-05-14T14:41:13.517Z,7.63
2023-05-14T14:43:41.100Z,8.85
2023-05-14T14:46:10.273Z,7.47
2023-05-14T14:48:39.831Z,7.65
2023-05-14T14:51:06.925Z,11.38
2023-05-14T14:53:33.576Z,9.55
2023-05-14T14:56:02.826Z,10.82
2023-05-14T14:58:29.350Z,9.35
2023-05-14T15:00:56.509Z,13.35
2023-05-14T15:03:23.638Z,9.48
2023-05-14T15:05:51.702Z,10.32
2023-05-14T15:08:18.062Z,7.85
2023-05-14T15:10:44.569Z,10.35
2023-05-14T15:13:11.461Z,11.10
2023-05-14T15:15:37.773Z,10.65
2023-05-14T15:18:04.495Z,8.93
2023-05-14T15:20:30.931Z,8.20
2023-05-14T15:22:57.336Z,10.13
2023-05-14T15:25:24.305Z,9.77
2023-05-14T15:27:50.838Z,7.10
2023-05-14T15:30:17.116Z,5.18
2023-05-14T15:32:48.737Z,12.38
2023-05-14T15:35:15.158Z,9.73
2023-05-14T15:37:42.558Z,8.13
2023-05-14T15:40:09.157Z,9.10
2023-05-14T15:42:38.850Z,13.13
2023-05-14T15:45:05.471Z,10.63
2023-05-14T15:47:32.051Z,13.00
2023-05-14T15:49:58.750Z,8.45
2023-05-14T15:52:25.093Z,11.05
2023-05-14T15:54:51.493Z,11.93
2023-05-14T15:57:19.901Z,11.38
2023-05-14T15:59:46.653Z,10.13
2023-05-14T16:02:13.303Z,9.80
2023-05-14T16:04:39.770Z,10.27
2023-05-14T16:07:09.361Z,13.32
2023-05-14T16:09:35.892Z,9.70
2023-05-14T16:12:02.353Z,9.05
2023-05-14T16:41:12.209Z,9.77
2023-05-14T16:43:38.623Z,11.98
2023-05-14T16:46:06.077Z,9.57
2023-05-14T16:48:32.417Z,10.35
2023-05-14T16:50:59.498Z,10.48
2023-05-14T16:53:25.956Z,9.20
2023-05-14T16:55:52.304Z,8.02
2023-05-14T16:58:18.574Z,6.65
2023-05-14T17:00:44.829Z,9.02
2023-05-14T17:03:11.237Z,7.80
2023-05-14T17:05:37.559Z,9.05
2023-05-14T17:08:04.727Z,8.93
2023-05-14T17:10:33.105Z,8.38
2023-05-14T17:12:59.736Z,13.10
2023-05-14T17:15:26.212Z,14.82
2023-05-14T17:17:52.609Z,14.35
2023-05-14T17:20:18.909Z,12.65
2023-05-14T17:22:45.186Z,9.27
2023-05-14T17:25:12.257Z,9.63
2023-05-14T17:27:38.641Z,18.15
2023-05-14T17:30:05.248Z,10.32
2023-05-14T17:32:31.771Z,8.48
2023-05-14T17:34:58.687Z,12.63
2023-05-14T17:37:25.253Z,12.18
2023-05-14T17:39:51.778Z,10.23
2023-05-14T17:42:18.215Z,9.10
2023-05-14T17:44:45.226Z,12.93
2023-05-14T17:47:11.661Z,9.55
2023-05-14T17:49:37.944Z,10.48
2023-05-14T17:52:04.264Z,11.40
2023-05-14T17:54:30.641Z,13.98
2023-05-14T17:56:57.036Z,12.63
2023-05-14T17:59:24.432Z,10.05
2023-05-14T18:01:50.914Z,12.68
2023-05-14T18:04:17.224Z,12.75
2023-05-14T18:06:44.524Z,9.05
2023-05-14T18:09:10.890Z,9.40
2023-05-14T18:11:37.152Z,9.70
2023-05-14T18:14:03.406Z,13.55
2023-05-14T18:16:29.860Z,12.35
2023-05-14T18:18:56.297Z,12.45
2023-05-14T18:21:22.829Z,15.43
2023-05-14T18:23:49.359Z,10.68
2023-05-14T18:26:15.793Z,9.25
2023-05-14T18:28:42.128Z,10.50
2023-05-14T18:31:08.633Z,11.70
2023-05-14T18:33:34.928Z,11.10
2023-05-14T18:36:01.716Z,6.55
2023-05-14T18:38:28.406Z,10.90
2023-05-14T18:40:54.864Z,11.10
2023-05-14T18:43:21.179Z,13.07
2023-05-14T18:45:48.275Z,10.93
2023-05-14T18:48:15.127Z,11.90
2023-05-14T18:50:41.396Z,10.32
2023-05-14T18:53:08.473Z,10.05
2023-05-14T18:55:35.097Z,10.27
2023-05-14T18:58:01.530Z,12.10
2023-05-14T19:00:27.860Z,8.13
2023-05-14T19:02:54.248Z,8.25
2023-05-14T19:05:20.865Z,11.77
2023-05-14T19:07:48.063Z,9.48
2023-05-14T19:10:14.653Z,9.38
2023-05-14T19:12:41.154Z,15.88
2023-05-14T19:15:07.663Z,18.50
2023-05-14T19:17:34.266Z,15.63
2023-05-14T19:20:00.510Z,12.32
2023-05-14T19:22:26.962Z,11.35
2023-05-14T19:24:53.235Z,12.05
2023-05-14T19:27:20.565Z,11.00
2023-05-14T19:29:46.833Z,10.18
2023-05-14T19:32:13.169Z,9.60
2023-05-14T19:34:39.654Z,10.25
2023-05-14T19:37:05.981Z,12.48
2023-05-14T19:39:32.396Z,8.38
2023-05-14T19:41:58.856Z,8.30
2023-05-14T19:44:25.321Z,7.53
2023-05-14T19:46:51.766Z,10.50
2023-05-14T19:49:18.188Z,10.57
2023-05-14T19:51:44.479Z,12.88
2023-05-14T19:54:10.757Z,8.88
2023-05-14T19:56:38.203Z,14.27
2023-05-14T19:59:04.557Z,11.63
2023-05-14T20:01:30.908Z,13.60
2023-05-14T20:03:57.439Z,9.45
2023-05-14T20:06:23.813Z,17.95
2023-05-14T20:08:51.465Z,16.92
2023-05-14T20:11:19.661Z,14.05
2023-05-14T20:13:46.019Z,13.60
2023-05-14T20:16:13.533Z,10.80
2023-05-14T20:18:39.888Z,11.10
2023-05-14T20:21:06.222Z,14.82
2023-05-14T20:23:32.855Z,14.00
2023-05-14T20:26:01.639Z,7.55
2023-05-14T20:28:28.057Z,11.43
2023-05-14T20:30:55.338Z,11.05
2023-05-14T20:33:21.911Z,12.90
2023-05-14T20:35:48.328Z,10.18
2023-05-14T20:38:14.747Z,11.15
2023-05-14T20:40:41.050Z,14.32
2023-05-14T20:43:07.393Z,11.10
2023-05-14T20:45:33.728Z,11.35
2023-05-14T20:48:00.203Z,10.38
2023-05-14T20:50:27.745Z,10.90
2023-05-14T20:52:54.814Z,11.63
2023-05-14T20:55:21.808Z,11.15
2023-05-14T20:57:49.567Z,11.35
2023-05-14T21:00:16.000Z,10.05
2023-05-14T21:02:42.428Z,10.35
2023-05-14T21:05:08.985Z,13.57
2023-05-14T21:07:37.235Z,12.65
2023-05-14T21:10:03.905Z,10.90
2023-05-14T21:12:30.164Z,16.05
2023-05-14T21:14:56.453Z,14.10
2023-05-14T21:17:22.845Z,13.70
2023-05-14T21:19:49.128Z,14.77
2023-05-14T21:22:15.458Z,8.98
2023-05-14T21:24:41.792Z,9.88
2023-05-14T21:27:08.108Z,11.68
2023-05-14T21:29:34.461Z,13.18
2023-05-14T21:32:01.035Z,18.27
2023-05-14T21:34:27.958Z,16.20
2023-05-14T21:36:55.479Z,14.00
2023-05-14T21:39:21.807Z,16.42
2023-05-14T21:41:48.129Z,15.88
2023-05-14T21:44:14.390Z,15.48
2023-05-14T21:46:40.708Z,15.10
2023-05-14T21:49:07.121Z,14.52
2023-05-14T21:51:33.614Z,11.95
2023-05-14T21:53:59.869Z,13.35
2023-05-14T21:56:26.332Z,20.25
2023-05-14T21:58:55.090Z,25.52
2023-05-14T22:01:21.478Z,19.27
2023-05-14T22:03:47.798Z,12.43
2023-05-14T22:06:14.184Z,15.07
2023-05-14T22:08:40.517Z,9.65
2023-05-14T22:11:06.779Z,11.45
2023-05-14T22:13:35.016Z,11.75
2023-05-14T22:16:12.037Z,11.10
2023-05-14T22:18:38.911Z,15.13
2023-05-14T22:21:05.762Z,14.10
2023-05-14T22:23:32.104Z,10.65
2023-05-14T22:25:58.552Z,13.27
2023-05-14T22:28:24.893Z,10.77
2023-05-14T22:30:51.249Z,15.65
2023-05-14T22:33:19.212Z,15.18
2023-05-14T22:35:45.543Z,13.63
2023-05-14T22:38:12.199Z,15.45
2023-05-14T22:40:38.591Z,12.85
2023-05-14T22:43:04.944Z,12.25
2023-05-14T22:45:31.244Z,11.82
2023-05-14T22:47:57.857Z,14.77
2023-05-14T22:50:24.102Z,13.93
2023-05-14T22:52:50.438Z,12.82
2023-05-14T22:55:16.750Z,16.10
2023-05-14T22:57:43.190Z,13.75
2023-05-14T23:00:10.012Z,16.15
2023-05-14T23:02:36.497Z,13.50
2023-05-14T23:05:03.115Z,12.85
2023-05-14T23:07:29.437Z,13.02
2023-05-14T23:09:55.773Z,16.85
2023-05-14T23:12:22.028Z,16.13
2023-05-14T23:14:48.239Z,16.52
2023-05-14T23:17:14.596Z,13.98
2023-05-14T23:19:41.342Z,15.07
2023-05-14T23:22:07.645Z,14.40
2023-05-14T23:24:33.972Z,14.40
2023-05-14T23:27:00.437Z,14.95
2023-05-14T23:29:26.754Z,15.60
2023-05-14T23:31:53.117Z,19.65
2023-05-14T23:34:19.422Z,17.48
2023-05-14T23:36:45.757Z,16.15
2023-05-14T23:39:12.143Z,12.27
2023-05-14T23:41:38.469Z,14.95
2023-05-14T23:44:04.788Z,15.73
2023-05-14T23:46:31.188Z,17.30
2023-05-14T23:48:57.786Z,15.02
2023-05-14T23:51:24.394Z,16.33
2023-05-14T23:53:53.033Z,18.92
2023-05-14T23:56:19.299Z,14.27
2023-05-14T23:58:45.556Z,17.27
